Time;durP1;ratioP1;P1;durP2;ratioP2;P2;SDS_P1;SDS_P2;PMS_P1;PMS_P2;Temp;Humidity;BMP_temperature;BMP_pressure;BME280_temperature;BME280_humidity;BME280_pressure;Samples;Min_cycle;Max_cycle;Signal;HPM_P1;HPM_P2
2022/10/05 00:00:46;;;;;;;7.68;6.97;;;15.00;99.90;;;;;;5062506;28;20466;-53
2022/10/05 00:03:12;;;;;;;7.68;6.47;;;15.00;99.90;;;;;;5057224;28;20075;-55
2022/10/05 00:05:38;;;;;;;7.35;6.65;;;15.00;99.90;;;;;;5060509;28;20076;-53
2022/10/05 00:08:17;;;;;;;7.80;7.00;;;15.00;99.90;;;;;;5059186;28;20409;-51
2022/10/05 00:10:44;;;;;;;9.43;6.88;;;15.00;99.90;;;;;;5059150;28;20084;-53
2022/10/05 00:13:22;;;;;;;8.50;6.50;;;15.00;99.90;;;;;;5054858;28;20040;-54
2022/10/05 00:15:48;;;;;;;7.50;6.10;;;15.00;99.90;;;;;;5057937;28;20037;-53
2022/10/05 00:18:23;;;;;;;9.68;6.95;;;15.10;99.90;;;;;;5061080;28;20060;-54
2022/10/05 00:20:48;;;;;;;10.15;6.60;;;15.00;99.90;;;;;;5054857;28;20041;-54
2022/10/05 00:23:20;;;;;;;8.35;6.60;;;15.00;99.90;;;;;;5063802;28;20056;-54
2022/10/05 00:25:46;;;;;;;7.75;6.65;;;15.00;99.90;;;;;;5060123;28;20363;-50
2022/10/05 00:28:28;;;;;;;7.93;6.07;;;15.00;99.90;;;;;;5063408;28;20043;-54
2022/10/05 00:30:58;;;;;;;11.10;6.93;;;15.00;99.90;;;;;;5056500;28;20091;-53
2022/10/05 00:33:24;;;;;;;9.20;7.10;;;15.00;99.90;;;;;;5056404;28;20040;-55
2022/10/05 00:35:50;;;;;;;9.55;7.18;;;15.00;99.90;;;;;;5053241;28;20048;-54
2022/10/05 00:38:16;;;;;;;10.00;7.47;;;15.00;99.90;;;;;;5059314;28;20403;-53
2022/10/05 00:41:06;;;;;;;8.60;7.68;;;15.00;99.90;;;;;;5062548;28;20498;-54
2022/10/05 00:43:52;;;;;;;9.38;7.70;;;15.00;99.90;;;;;;5059626;28;20106;-53
2022/10/05 00:46:26;;;;;;;10.10;8.05;;;14.90;99.90;;;;;;5055215;28;21986;-53
2022/10/05 00:49:14;;;;;;;9.07;8.20;;;14.90;99.90;;;;;;5060481;28;20043;-54
2022/10/05 00:51:47;;;;;;;14.38;8.07;;;14.90;99.90;;;;;;5057142;28;20197;-52
2022/10/05 00:54:24;;;;;;;10.32;8.13;;;14.90;99.90;;;;;;5055069;28;20119;-52
2022/10/05 00:57:22;;;;;;;11.07;8.30;;;14.90;99.90;;;;;;5054856;28;20059;-55
2022/10/05 00:59:56;;;;;;;11.38;8.48;;;14.90;99.90;;;;;;5059449;28;20053;-53
2022/10/05 01:02:32;;;;;;;12.10;8.48;;;14.90;99.90;;;;;;5053508;28;20091;-54
2022/10/05 01:05:06;;;;;;;11.65;8.75;;;14.90;99.90;;;;;;5052690;28;20513;-54
2022/10/05 01:07:34;;;;;;;14.65;8.65;;;14.90;99.90;;;;;;5061371;28;20043;-55
2022/10/05 01:10:11;;;;;;;11.43;8.23;;;14.90;99.90;;;;;;5054746;28;20037;-54
2022/10/05 01:12:47;;;;;;;9.90;8.70;;;14.90;99.90;;;;;;5065520;28;20049;-53
2022/10/05 01:15:21;;;;;;;11.48;8.52;;;14.90;99.90;;;;;;5055395;28;20468;-52
2022/10/05 01:18:04;;;;;;;11.05;8.85;;;14.80;99.90;;;;;;5058280;28;20044;-54
2022/10/05 01:20:45;;;;;;;11.27;8.15;;;14.90;99.90;;;;;;5055223;28;20518;-53
2022/10/05 01:23:29;;;;;;;11.85;9.02;;;14.90;99.90;;;;;;5058530;28;20142;-53
2022/10/05 01:26:02;;;;;;;9.93;8.25;;;14.80;99.90;;;;;;5058467;28;20045;-54
2022/10/05 01:28:34;;;;;;;9.70;8.70;;;14.80;99.90;;;;;;5055557;28;20491;-51
2022/10/05 01:31:27;;;;;;;13.57;8.50;;;14.80;99.90;;;;;;5056658;28;20044;-54
2022/10/05 01:34:20;;;;;;;11.93;9.07;;;14.80;99.90;;;;;;5054845;28;20036;-53
2022/10/05 01:37:23;;;;;;;12.57;9.27;;;14.80;99.90;;;;;;5050923;28;20427;-52
2022/10/05 01:40:10;;;;;;;11.73;8.48;;;14.80;99.90;;;;;;5051682;28;20032;-52
2022/10/05 01:42:55;;;;;;;12.00;9.40;;;14.80;99.90;;;;;;5058097;28;20064;-53
2022/10/05 01:45:54;;;;;;;10.15;8.32;;;14.80;99.90;;;;;;5053872;28;20041;-52
2022/10/05 01:48:51;;;;;;;12.23;8.82;;;14.80;99.90;;;;;;5053224;28;20048;-51
2022/10/05 01:51:30;;;;;;;9.38;8.40;;;14.80;99.90;;;;;;5052292;28;20383;-51
2022/10/05 01:54:17;;;;;;;9.48;8.02;;;14.80;99.90;;;;;;5040284;28;20066;-53
2022/10/05 01:56:51;;;;;;;11.90;8.57;;;14.80;99.90;;;;;;5050802;28;20515;-55
2022/10/05 01:59:34;;;;;;;10.50;7.82;;;14.80;99.90;;;;;;5056732;28;20389;-50
2022/10/05 02:02:21;;;;;;;11.63;8.45;;;14.80;99.90;;;;;;5052646;28;20117;-52
2022/10/05 02:04:52;;;;;;;11.07;8.30;;;14.70;99.90;;;;;;5053766;28;20087;-54
2022/10/05 02:07:25;;;;;;;11.80;8.15;;;14.80;99.90;;;;;;5054562;28;20045;-55
2022/10/05 02:10:01;;;;;;;9.82;8.30;;;14.80;99.90;;;;;;5054099;28;20056;-55
2022/10/05 02:12:30;;;;;;;8.85;7.95;;;14.80;99.90;;;;;;5054277;28;20106;-53
2022/10/05 02:15:06;;;;;;;10.10;7.97;;;14.70;99.90;;;;;;5054211;28;20484;-55
2022/10/05 02:17:38;;;;;;;10.48;7.72;;;14.70;99.90;;;;;;5054031;28;20182;-53
2022/10/05 02:20:09;;;;;;;10.68;7.95;;;14.70;99.90;;;;;;5059283;28;20075;-52
2022/10/05 02:22:43;;;;;;;12.13;8.25;;;14.70;99.90;;;;;;5056103;28;20129;-53
2022/10/05 02:25:14;;;;;;;8.15;7.43;;;14.70;99.90;;;;;;5053662;28;20040;-53
2022/10/05 02:28:05;;;;;;;7.72;6.90;;;14.70;99.90;;;;;;5054358;28;20048;-52
2022/10/05 02:30:34;;;;;;;8.95;8.05;;;14.70;99.90;;;;;;5058316;28;20056;-50
2022/10/05 02:33:03;;;;;;;13.23;7.88;;;14.60;99.90;;;;;;5053820;28;20037;-54
2022/10/05 02:35:28;;;;;;;12.50;8.10;;;14.60;99.90;;;;;;5054495;28;20142;-54
2022/10/05 02:38:00;;;;;;;9.95;7.90;;;14.60;99.90;;;;;;5051614;28;20059;-52
2022/10/05 02:40:59;;;;;;;9.82;7.53;;;14.50;99.90;;;;;;5055174;28;20032;-53
2022/10/05 02:43:59;;;;;;;10.35;7.70;;;14.50;99.90;;;;;;5052444;28;20094;-54
2022/10/05 02:46:36;;;;;;;11.07;8.30;;;14.50;99.90;;;;;;5056732;28;20171;-53
2022/10/05 02:49:05;;;;;;;10.75;7.65;;;14.50;99.90;;;;;;5055978;28;20047;-53
2022/10/05 02:51:58;;;;;;;9.18;7.88;;;14.50;99.90;;;;;;5058845;28;20502;-54
2022/10/05 02:54:41;;;;;;;9.85;7.93;;;14.50;99.90;;;;;;5056516;28;20510;-55
2022/10/05 02:57:21;;;;;;;10.88;7.80;;;14.40;99.90;;;;;;5050493;28;20039;-54
2022/10/05 02:59:51;;;;;;;8.30;7.30;;;14.40;99.90;;;;;;5059663;28;20063;-50
2022/10/05 03:02:41;;;;;;;9.68;7.38;;;14.40;99.90;;;;;;5055567;28;20381;-52
2022/10/05 03:05:37;;;;;;;8.68;7.40;;;14.30;99.90;;;;;;5050512;28;20080;-55
2022/10/05 03:08:16;;;;;;;10.25;7.72;;;14.40;99.90;;;;;;5055179;28;20059;-54
2022/10/05 03:10:52;;;;;;;11.23;7.72;;;14.30;99.90;;;;;;5053981;28;20052;-54
2022/10/05 03:13:36;;;;;;;11.25;7.82;;;14.30;99.90;;;;;;5053112;28;20127;-52
2022/10/05 03:16:34;;;;;;;9.20;8.05;;;14.30;99.90;;;;;;5055180;28;20336;-50
2022/10/05 03:19:27;;;;;;;10.27;8.02;;;14.30;99.90;;;;;;5053607;28;20098;-53
2022/10/05 03:22:20;;;;;;;8.40;7.50;;;14.30;99.90;;;;;;5060711;28;20044;-54
2022/10/05 03:25:18;;;;;;;10.68;8.27;;;14.30;99.90;;;;;;5060577;28;20044;-51
2022/10/05 03:27:53;;;;;;;10.57;7.85;;;14.30;99.90;;;;;;5061278;28;20044;-52
2022/10/05 03:30:22;;;;;;;10.55;8.60;;;14.30;99.90;;;;;;5062428;28;20092;-52
2022/10/05 03:32:53;;;;;;;12.38;8.63;;;14.30;99.90;;;;;;5063478;28;20072;-50
2022/10/05 03:35:28;;;;;;;12.88;8.65;;;14.20;99.90;;;;;;5064472;28;20662;-54
2022/10/05 03:38:07;;;;;;;12.18;8.80;;;14.20;99.90;;;;;;5062419;28;20044;-54
2022/10/05 03:40:42;;;;;;;10.38;8.50;;;14.10;99.90;;;;;;5057161;28;20047;-52
2022/10/05 03:43:19;;;;;;;12.65;8.93;;;14.10;99.90;;;;;;5061775;28;20098;-53
2022/10/05 03:46:11;;;;;;;12.38;8.65;;;14.10;99.90;;;;;;5064530;28;20040;-54
2022/10/05 03:48:53;;;;;;;9.77;8.63;;;14.00;99.90;;;;;;5063186;28;20056;-54
2022/10/05 03:51:42;;;;;;;10.75;9.35;;;14.10;99.90;;;;;;5064203;28;20059;-54
2022/10/05 03:54:16;;;;;;;10.85;8.90;;;14.10;99.90;;;;;;5041269;28;20049;-52
2022/10/05 03:57:00;;;;;;;12.32;9.48;;;14.10;99.90;;;;;;5061780;28;20576;-53
2022/10/05 03:59:32;;;;;;;13.00;9.32;;;14.10;99.90;;;;;;5059558;28;20097;-51
2022/10/05 04:02:01;;;;;;;12.20;9.25;;;14.10;99.90;;;;;;5052610;28;20120;-55
2022/10/05 04:04:41;;;;;;;10.88;9.75;;;14.10;99.90;;;;;;5059474;28;20037;-54
2022/10/05 04:07:20;;;;;;;11.93;9.98;;;14.10;99.90;;;;;;5056108;28;20075;-55
2022/10/05 04:09:50;;;;;;;11.68;9.73;;;14.10;99.90;;;;;;5056844;28;20048;-54
2022/10/05 04:12:30;;;;;;;12.40;10.23;;;14.10;99.90;;;;;;5057188;28;20052;-53
2022/10/05 04:15:02;;;;;;;10.98;9.82;;;14.10;99.90;;;;;;5058501;28;20063;-54
2022/10/05 04:17:41;;;;;;;13.07;10.07;;;14.10;99.90;;;;;;5055298;28;20444;-52
2022/10/05 04:20:30;;;;;;;15.00;10.45;;;14.10;99.90;;;;;;5060700;28;20044;-53
2022/10/05 04:23:11;;;;;;;15.45;10.38;;;14.10;99.90;;;;;;5059164;28;20127;-53
2022/10/05 04:25:49;;;;;;;17.83;10.85;;;14.10;99.90;;;;;;5062750;28;20118;-54
2022/10/05 04:28:14;;;;;;;18.17;10.40;;;14.10;99.90;;;;;;5057378;28;20483;-53
2022/10/05 04:30:45;;;;;;;11.55;10.30;;;14.10;99.90;;;;;;5064027;28;20045;-53
2022/10/05 04:33:12;;;;;;;12.55;10.57;;;14.10;99.90;;;;;;5057455;28;20502;-53
2022/10/05 04:36:09;;;;;;;13.32;10.35;;;14.00;99.90;;;;;;5057844;28;20040;-53
2022/10/05 04:38:48;;;;;;;11.93;10.80;;;14.00;99.90;;;;;;5053456;28;20048;-51
2022/10/05 04:41:23;;;;;;;13.52;10.88;;;14.00;99.90;;;;;;5054913;28;20086;-55
2022/10/05 04:43:54;;;;;;;12.27;10.98;;;14.10;99.90;;;;;;5056610;28;20098;-53
2022/10/05 04:46:44;;;;;;;15.40;11.40;;;14.10;99.90;;;;;;5057186;28;20059;-53
2022/10/05 04:49:37;;;;;;;15.45;11.65;;;14.00;99.90;;;;;;5054160;28;20096;-54
2022/10/05 04:52:22;;;;;;;13.65;11.30;;;14.00;99.90;;;;;;5057411;28;20106;-54
2022/10/05 04:55:21;;;;;;;12.70;11.40;;;14.00;99.90;;;;;;5055821;28;21627;-54
2022/10/05 04:58:09;;;;;;;14.15;12.50;;;14.00;99.90;;;;;;5056540;28;20102;-50
2022/10/05 05:01:03;;;;;;;14.73;11.70;;;14.00;99.90;;;;;;5056574;28;20055;-54
2022/10/05 05:03:37;;;;;;;14.82;11.63;;;13.90;99.90;;;;;;5056009;28;20052;-53
2022/10/05 05:06:25;;;;;;;14.32;11.82;;;13.90;99.90;;;;;;5054828;28;20095;-54
2022/10/05 05:09:23;;;;;;;16.63;11.95;;;13.90;99.90;;;;;;5052793;28;20040;-52
2022/10/05 05:12:10;;;;;;;14.27;11.68;;;13.90;99.90;;;;;;5061538;28;20513;-54
2022/10/05 05:14:35;;;;;;;15.77;11.90;;;13.90;99.90;;;;;;5058975;28;20047;-52
2022/10/05 05:17:24;;;;;;;15.02;12.27;;;13.90;99.90;;;;;;5055597;28;20306;-53
2022/10/05 05:20:17;;;;;;;14.45;11.45;;;13.90;99.90;;;;;;5058110;28;20086;-50
2022/10/05 05:23:07;;;;;;;14.55;12.45;;;13.90;99.90;;;;;;5060821;28;20117;-53
2022/10/05 05:25:42;;;;;;;13.70;12.20;;;13.90;99.90;;;;;;5055878;28;20080;-53
2022/10/05 05:28:17;;;;;;;14.27;12.00;;;13.90;99.90;;;;;;5054195;28;20040;-54
2022/10/05 05:30:54;;;;;;;15.63;12.23;;;13.90;99.90;;;;;;5051906;28;20047;-54
2022/10/05 05:33:26;;;;;;;14.93;12.45;;;13.90;99.90;;;;;;5054361;28;20076;-54
2022/10/05 05:36:12;;;;;;;15.25;12.20;;;13.90;99.90;;;;;;5057929;28;20078;-52
2022/10/05 05:38:39;;;;;;;17.25;12.50;;;13.90;99.90;;;;;;5057262;28;20041;-52
2022/10/05 05:41:11;;;;;;;14.33;12.00;;;13.90;99.90;;;;;;5057374;28;20033;-51
2022/10/05 05:43:40;;;;;;;13.60;11.57;;;13.90;99.90;;;;;;5051015;28;20045;-53
2022/10/05 05:46:15;;;;;;;16.58;12.13;;;13.90;99.90;;;;;;5052271;28;20811;-54
2022/10/05 05:48:45;;;;;;;14.18;12.32;;;13.90;99.90;;;;;;5050995;28;20047;-55
2022/10/05 05:51:18;;;;;;;13.90;12.15;;;13.90;99.90;;;;;;5054064;28;20045;-54
2022/10/05 05:53:50;;;;;;;16.45;11.70;;;14.00;99.90;;;;;;5055981;28;20128;-51
2022/10/05 05:56:31;;;;;;;15.40;12.05;;;14.00;99.90;;;;;;5054969;28;20399;-55
2022/10/05 05:59:18;;;;;;;15.50;12.80;;;14.00;99.90;;;;;;5054650;28;20041;-52
2022/10/05 06:01:51;;;;;;;13.00;11.68;;;14.00;99.90;;;;;;5056446;28;20083;-51
2022/10/05 06:04:38;;;;;;;13.02;11.73;;;14.00;99.90;;;;;;5053555;28;20264;-52
2022/10/05 06:07:05;;;;;;;14.90;12.43;;;14.10;99.90;;;;;;5051960;28;20039;-55
2022/10/05 06:09:44;;;;;;;14.80;11.57;;;14.00;99.90;;;;;;5056111;28;20123;-52
2022/10/05 06:12:15;;;;;;;13.05;11.70;;;14.10;99.90;;;;;;5055335;28;20048;-54
2022/10/05 06:14:58;;;;;;;13.55;12.13;;;14.10;99.90;;;;;;5057163;28;20098;-52
2022/10/05 06:17:32;;;;;;;13.88;12.18;;;14.10;99.90;;;;;;5054611;28;20044;-53
2022/10/05 06:20:00;;;;;;;12.95;11.18;;;14.10;99.90;;;;;;5059955;28;20497;-55
2022/10/05 06:22:28;;;;;;;;;;;14.10;99.90;;;;;;5063861;28;20891;-53
2022/10/05 06:25:12;;;;;;;12.13;10.75;;;14.20;99.90;;;;;;5061656;28;20394;-50
2022/10/05 06:27:37;;;;;;;13.38;10.98;;;14.20;99.90;;;;;;5057102;28;20086;-55
2022/10/05 06:30:07;;;;;;;12.15;10.48;;;14.20;99.90;;;;;;5062901;28;20040;-52
2022/10/05 06:33:05;;;;;;;13.35;10.88;;;14.20;99.90;;;;;;5067407;28;20041;-56
2022/10/05 06:35:40;;;;;;;12.23;10.40;;;14.30;99.90;;;;;;5066762;28;20132;-54
2022/10/05 06:38:24;;;;;;;11.32;10.23;;;14.30;99.90;;;;;;5065364;28;20041;-54
2022/10/05 06:41:04;;;;;;;12.80;10.45;;;14.40;99.90;;;;;;5064376;28;20036;-52
2022/10/05 06:43:35;;;;;;;13.07;10.15;;;14.40;99.90;;;;;;5060495;28;20113;-54
2022/10/05 06:46:11;;;;;;;11.48;10.38;;;14.40;99.90;;;;;;5057826;28;20966;-55
2022/10/05 06:49:10;;;;;;;11.93;9.88;;;14.40;99.90;;;;;;5060570;28;20352;-55
2022/10/05 06:51:57;;;;;;;12.52;10.45;;;14.40;99.90;;;;;;5063776;28;20670;-54
2022/10/05 06:54:59;;;;;;;12.65;10.60;;;14.40;99.90;;;;;;5061755;28;20045;-55
2022/10/05 06:57:25;;;;;;;10.60;9.50;;;14.50;99.90;;;;;;5055319;28;20406;-54
2022/10/05 06:59:56;;;;;;;11.52;9.52;;;14.50;99.90;;;;;;5064324;28;20040;-54
2022/10/05 07:02:46;;;;;;;10.45;9.35;;;14.50;99.90;;;;;;5068328;28;20513;-54
2022/10/05 07:05:47;;;;;;;12.30;9.57;;;14.50;99.90;;;;;;5065888;28;20052;-53
2022/10/05 07:08:19;;;;;;;11.85;9.93;;;14.50;99.90;;;;;;5065554;28;20048;-53
2022/10/05 07:11:02;;;;;;;10.70;9.60;;;14.50;99.90;;;;;;5071736;28;20087;-53
2022/10/05 07:13:36;;;;;;;10.32;9.32;;;14.60;99.90;;;;;;5066971;28;20052;-55
2022/10/05 07:16:44;;;;;;;11.68;9.13;;;14.60;99.90;;;;;;5064491;28;20044;-55
2022/10/05 07:19:24;;;;;;;10.23;9.02;;;14.60;99.90;;;;;;5067874;28;20139;-54
2022/10/05 07:22:22;;;;;;;11.20;9.50;;;14.60;99.90;;;;;;5063895;28;20048;-55
2022/10/05 07:25:10;;;;;;;10.95;9.75;;;14.60;99.90;;;;;;5062366;28;20053;-54
2022/10/05 07:27:59;;;;;;;10.38;9.18;;;14.60;99.90;;;;;;5066352;28;20131;-56
2022/10/05 07:30:24;;;;;;;11.20;9.07;;;14.60;99.90;;;;;;5065660;28;20382;-54
2022/10/05 07:33:05;;;;;;;13.88;9.45;;;14.60;99.90;;;;;;5069150;28;20036;-54
2022/10/05 07:38:50;;;;;;;11.75;9.57;;;14.70;99.90;;;;;;5068304;28;20053;-57
2022/10/05 07:41:28;;;;;;;12.55;9.07;;;14.70;99.90;;;;;;5067388;28;20045;-52
2022/10/05 07:43:59;;;;;;;11.55;9.27;;;14.80;99.90;;;;;;5071358;28;20049;-54
2022/10/05 07:46:39;;;;;;;14.02;10.00;;;14.80;99.90;;;;;;5065283;28;20133;-54
2022/10/05 07:49:25;;;;;;;10.55;9.50;;;14.80;99.90;;;;;;5067323;28;20139;-55
2022/10/05 07:51:55;;;;;;;9.70;8.73;;;14.80;99.90;;;;;;5063202;28;20093;-55
2022/10/05 07:54:29;;;;;;;10.93;8.48;;;14.90;99.90;;;;;;5069391;28;20037;-55
2022/10/05 07:57:09;;;;;;;10.23;9.05;;;14.90;99.90;;;;;;5066951;28;20047;-54
2022/10/05 07:59:44;;;;;;;9.90;8.95;;;15.00;99.90;;;;;;5060832;28;20101;-54
2022/10/05 08:02:16;;;;;;;9.00;8.20;;;15.00;99.90;;;;;;5067503;28;20052;-54
2022/10/05 08:05:13;;;;;;;10.48;9.40;;;15.10;99.90;;;;;;5069023;28;20405;-54
2022/10/05 08:07:39;;;;;;;10.93;9.73;;;15.10;99.90;;;;;;5065405;28;20135;-54
2022/10/05 08:10:13;;;;;;;9.32;8.13;;;15.10;99.90;;;;;;5066727;28;20111;-54
2022/10/05 08:12:56;;;;;;;9.85;8.48;;;15.20;99.90;;;;;;5066279;28;20049;-55
2022/10/05 08:15:31;;;;;;;8.90;7.93;;;15.20;99.90;;;;;;5065432;28;20049;-56
2022/10/05 08:18:15;;;;;;;9.55;8.45;;;15.30;99.90;;;;;;5064168;28;20048;-54
2022/10/05 08:20:48;;;;;;;13.18;9.60;;;15.30;99.90;;;;;;5065473;28;20436;-54
2022/10/05 08:23:21;;;;;;;8.40;7.55;;;15.40;99.90;;;;;;5065448;28;20060;-52
2022/10/05 08:26:04;;;;;;;10.38;8.00;;;15.60;99.90;;;;;;5066306;28;20063;-54
2022/10/05 08:28:37;;;;;;;8.98;8.07;;;15.60;99.90;;;;;;5064269;28;20505;-53
2022/10/05 08:31:43;;;;;;;8.20;7.40;;;15.70;99.90;;;;;;5066559;28;20040;-55
2022/10/05 08:34:21;;;;;;;8.55;7.38;;;15.80;99.90;;;;;;5061252;28;20040;-55
2022/10/05 08:36:46;;;;;;;;;;;15.80;99.90;;;;;;5060465;28;20049;-56
2022/10/05 08:39:17;;;;;;;10.73;6.75;;;15.90;99.90;;;;;;5061196;28;19947;-56
2022/10/05 08:41:57;;;;;;;8.05;7.25;;;16.00;99.90;;;;;;5039570;28;20143;-57
2022/10/05 08:44:37;;;;;;;9.15;6.70;;;16.20;99.90;;;;;;5059316;28;20048;-56
2022/10/05 08:47:21;;;;;;;8.45;6.45;;;16.30;99.90;;;;;;5058882;28;20037;-55
2022/10/05 08:50:11;;;;;;;7.13;6.43;;;16.30;99.90;;;;;;5025517;28;20534;-54
2022/10/05 08:52:48;;;;;;;8.60;6.38;;;16.40;99.90;;;;;;5060847;28;20049;-55
2022/10/05 08:55:22;;;;;;;7.85;5.75;;;16.50;99.90;;;;;;5044028;28;20043;-54
2022/10/05 08:58:14;;;;;;;6.88;6.18;;;16.70;99.90;;;;;;5059475;28;20052;-55
2022/10/05 09:01:00;;;;;;;7.47;5.90;;;16.70;99.90;;;;;;5060439;28;20554;-55
2022/10/05 09:03:35;;;;;;;7.68;5.53;;;16.80;99.90;;;;;;5059353;28;20041;-55
2022/10/05 09:06:19;;;;;;;7.03;5.07;;;16.90;99.90;;;;;;5059934;28;20060;-55
2022/10/05 09:08:54;;;;;;;5.50;5.00;;;16.90;99.90;;;;;;5065301;28;20036;-54
2022/10/05 09:11:39;;;;;;;8.55;4.75;;;17.10;99.90;;;;;;5063444;28;20048;-55
2022/10/05 09:14:17;;;;;;;6.28;5.07;;;17.10;99.90;;;;;;5065595;28;20132;-56
2022/10/05 09:16:55;;;;;;;5.45;4.93;;;17.10;99.90;;;;;;5064260;28;20480;-56
2022/10/05 09:19:38;;;;;;;6.43;4.65;;;17.10;99.90;;;;;;5061144;28;20049;-57
2022/10/05 09:22:35;;;;;;;5.60;4.75;;;17.10;99.90;;;;;;5072021;28;20090;-55
2022/10/05 09:25:19;;;;;;;5.82;4.93;;;17.20;99.90;;;;;;5068315;28;20055;-55
2022/10/05 09:28:16;;;;;;;5.00;4.60;;;17.20;99.90;;;;;;5064259;28;20056;-54
2022/10/05 09:31:23;;;;;;;6.82;4.95;;;17.20;99.90;;;;;;5063283;28;20053;-55
2022/10/05 09:34:15;;;;;;;5.10;4.60;;;17.20;99.90;;;;;;5063431;28;20049;-54
2022/10/05 09:37:19;;;;;;;6.18;4.75;;;17.20;99.90;;;;;;5055215;28;20044;-54
2022/10/05 09:40:12;;;;;;;6.30;4.60;;;17.20;99.90;;;;;;5059518;28;20040;-54
2022/10/05 09:43:03;;;;;;;8.50;5.45;;;17.10;99.90;;;;;;5054443;28;20076;-55
2022/10/05 09:46:03;;;;;;;6.93;4.63;;;17.10;99.90;;;;;;5056578;28;20053;-52
2022/10/05 09:49:05;;;;;;;6.78;5.40;;;17.20;99.90;;;;;;5059961;28;20082;-53
2022/10/05 09:51:57;;;;;;;6.60;4.95;;;17.10;99.90;;;;;;5054565;28;20516;-55
2022/10/05 09:54:55;;;;;;;5.82;5.10;;;17.20;99.90;;;;;;5061781;28;21173;-54
2022/10/05 09:57:35;;;;;;;5.13;4.70;;;17.20;99.90;;;;;;5063640;28;20056;-55
2022/10/05 10:00:22;;;;;;;7.93;5.10;;;17.20;99.90;;;;;;5057506;28;20052;-54
2022/10/05 10:03:12;;;;;;;5.53;5.03;;;17.30;99.90;;;;;;5064340;28;20486;-54
2022/10/05 10:05:56;;;;;;;7.20;4.88;;;17.30;99.90;;;;;;5063605;28;20052;-52
2022/10/05 10:08:22;;;;;;;6.35;4.68;;;17.40;99.90;;;;;;5066432;28;20045;-55
2022/10/05 10:11:08;;;;;;;5.07;4.55;;;17.50;99.90;;;;;;5063082;28;20505;-53
2022/10/05 10:13:59;;;;;;;5.43;4.70;;;17.50;99.90;;;;;;5059115;28;20048;-55
2022/10/05 10:16:55;;;;;;;5.03;4.40;;;17.60;99.90;;;;;;5063812;28;20499;-52
2022/10/05 10:19:33;;;;;;;5.53;4.35;;;17.70;99.90;;;;;;5067011;28;20486;-54
2022/10/05 10:22:11;;;;;;;4.65;4.10;;;17.70;99.90;;;;;;5066720;28;20506;-55
2022/10/05 10:24:36;;;;;;;;;;;17.70;99.90;;;;;;5067035;28;20044;-52
2022/10/05 10:27:27;;;;;;;3.78;3.47;;;17.60;99.90;;;;;;5063838;28;19921;-54
2022/10/05 10:30:02;;;;;;;5.07;3.55;;;17.60;99.90;;;;;;5065257;28;20049;-51
2022/10/05 10:32:46;;;;;;;3.95;3.55;;;17.70;99.90;;;;;;5060215;28;20483;-54
2022/10/05 10:35:36;;;;;;;4.40;3.80;;;17.70;99.90;;;;;;5073855;28;20153;-54
2022/10/05 10:38:33;;;;;;;5.05;2.90;;;17.70;99.90;;;;;;5071451;28;20036;-55
2022/10/05 10:41:20;;;;;;;3.90;3.15;;;17.70;99.90;;;;;;5069057;28;20040;-54
2022/10/05 10:44:32;;;;;;;4.78;2.70;;;17.80;99.90;;;;;;5066443;28;20101;-54
2022/10/05 10:47:13;;;;;;;2.85;2.65;;;17.90;99.90;;;;;;5067227;28;20402;-53
2022/10/05 10:50:00;;;;;;;5.38;2.92;;;17.90;99.90;;;;;;5070873;28;20051;-56
2022/10/05 10:52:26;;;;;;;;;;;;;;;;;;5066012;28;20047;-53
2022/10/05 10:55:56;;;;;;;4.32;3.42;;;18.10;99.90;;;;;;5069311;28;19920;-54
2022/10/05 10:58:37;;;;;;;6.22;3.35;;;;;;;;;;5044791;28;20110;-54
2022/10/05 11:01:02;;;;;;;5.03;3.25;;;18.20;99.90;;;;;;5047330;28;20057;-54
2022/10/05 11:04:05;;;;;;;3.70;3.22;;;18.20;99.90;;;;;;5047665;28;20052;-54
2022/10/05 11:07:21;;;;;;;4.13;3.20;;;18.20;99.90;;;;;;5052695;28;20036;-54
2022/10/05 11:10:01;;;;;;;4.95;3.10;;;18.50;99.90;;;;;;4968327;28;20086;-53
2022/10/05 11:13:04;;;;;;;5.22;3.95;;;18.60;99.90;;;;;;4970530;28;20172;-54
2022/10/05 11:16:05;;;;;;;4.93;3.40;;;18.50;99.90;;;;;;4968642;28;20055;-54
2022/10/05 11:18:56;;;;;;;6.95;3.20;;;18.70;99.90;;;;;;4968246;28;20043;-54
2022/10/05 11:21:47;;;;;;;4.57;3.58;;;18.80;99.90;;;;;;4963261;28;20143;-54
2022/10/05 11:24:37;;;;;;;5.20;3.53;;;18.80;99.90;;;;;;4969075;28;20046;-54
2022/10/05 11:27:07;;;;;;;4.55;3.80;;;18.90;99.90;;;;;;4966050;28;20082;-54
2022/10/05 11:30:02;;;;;;;4.45;3.50;;;18.90;99.90;;;;;;4983202;28;20586;-54
2022/10/05 11:32:59;;;;;;;4.10;3.30;;;18.90;99.90;;;;;;5005190;28;20049;-55
2022/10/05 11:35:59;;;;;;;4.75;3.40;;;18.90;99.90;;;;;;4993801;28;20050;-53
2022/10/05 11:38:47;;;;;;;7.50;3.58;;;18.90;99.90;;;;;;5010460;28;20085;-55
2022/10/05 11:41:40;;;;;;;5.47;3.38;;;18.90;99.90;;;;;;5012266;28;20088;-53
2022/10/05 11:44:53;;;;;;;3.58;2.90;;;18.90;99.90;;;;;;5011054;28;20050;-54
2022/10/05 11:47:39;;;;;;;5.32;3.30;;;19.00;99.90;;;;;;5075315;28;20091;-55
2022/10/05 11:50:15;;;;;;;4.15;3.20;;;19.00;99.90;;;;;;5076750;28;20123;-55
2022/10/05 11:52:45;;;;;;;4.70;3.38;;;18.90;99.90;;;;;;5078456;28;20171;-55
2022/10/05 11:55:18;;;;;;;3.38;3.00;;;19.00;99.90;;;;;;5093148;28;20119;-55
2022/10/05 11:58:06;;;;;;;7.18;3.00;;;18.90;99.90;;;;;;5093993;28;20086;-55
2022/10/05 12:00:39;;;;;;;4.57;3.28;;;19.00;99.90;;;;;;5059624;28;20483;-54
2022/10/05 12:03:11;;;;;;;4.63;3.20;;;18.90;99.90;;;;;;5089746;28;20044;-54
2022/10/05 12:06:12;;;;;;;4.05;2.95;;;18.90;99.90;;;;;;5062990;28;20048;-54
2022/10/05 12:09:05;;;;;;;3.10;2.75;;;19.00;99.90;;;;;;5076813;28;20048;-55
2022/10/05 12:11:54;;;;;;;3.67;2.58;;;19.00;99.90;;;;;;5067861;28;20155;-54
2022/10/05 12:14:54;;;;;;;5.55;3.03;;;18.90;99.90;;;;;;5092387;28;20478;-55
2022/10/05 12:17:27;;;;;;;3.75;3.00;;;18.80;99.90;;;;;;5079009;28;20039;-54
2022/10/05 12:20:01;;;;;;;3.88;2.85;;;18.70;99.90;;;;;;5092259;28;20040;-53
2022/10/05 12:22:33;;;;;;;4.35;2.92;;;18.60;99.90;;;;;;5064922;28;20071;-54
2022/10/05 12:25:25;;;;;;;3.53;2.97;;;18.60;99.90;;;;;;5088589;28;20504;-54
2022/10/05 12:27:56;;;;;;;3.97;2.92;;;18.50;99.90;;;;;;5047081;28;20417;-54
2022/10/05 12:30:43;;;;;;;4.18;2.92;;;18.50;99.90;;;;;;5088464;28;20044;-54
2022/10/05 12:33:25;;;;;;;4.05;2.92;;;18.40;99.90;;;;;;5061610;28;20053;-54
2022/10/05 12:35:59;;;;;;;6.75;3.17;;;18.50;99.90;;;;;;5058861;28;20433;-54
2022/10/05 12:38:54;;;;;;;4.90;3.28;;;18.40;99.90;;;;;;5087615;28;20048;-55
2022/10/05 12:41:20;;;;;;;5.53;3.30;;;18.40;99.90;;;;;;5076808;28;20048;-52
2022/10/05 12:43:48;;;;;;;3.60;3.05;;;18.30;99.90;;;;;;5087182;28;20494;-54
2022/10/05 12:46:28;;;;;;;5.63;3.15;;;18.30;99.90;;;;;;5089338;28;20087;-54
2022/10/05 12:49:17;;;;;;;5.22;3.00;;;18.40;99.90;;;;;;5077589;28;20037;-54
2022/10/05 12:51:55;;;;;;;3.97;2.92;;;18.40;99.90;;;;;;5087485;28;20048;-53
2022/10/05 12:54:50;;;;;;;3.13;2.85;;;18.50;99.90;;;;;;5092870;28;20413;-54
2022/10/05 12:57:28;;;;;;;3.33;2.90;;;18.60;99.90;;;;;;5086685;28;20048;-54
2022/10/05 13:00:01;;;;;;;6.28;3.10;;;18.80;99.90;;;;;;5088040;28;20040;-52
2022/10/05 13:02:41;;;;;;;4.82;2.83;;;18.80;99.90;;;;;;5074125;28;20068;-53
2022/10/05 13:05:09;;;;;;;4.38;2.50;;;19.00;99.90;;;;;;5060941;28;20044;-54
2022/10/05 13:08:06;;;;;;;6.35;2.83;;;19.00;99.90;;;;;;5079319;28;20047;-55
2022/10/05 13:10:47;;;;;;;3.92;2.72;;;19.00;99.90;;;;;;5062230;28;20123;-55
2022/10/05 13:13:40;;;;;;;4.15;2.55;;;19.10;99.90;;;;;;5086606;28;20048;-54
2022/10/05 13:16:15;;;;;;;4.88;2.40;;;19.00;99.90;;;;;;5071421;28;20496;-55
2022/10/05 13:18:57;;;;;;;2.58;2.28;;;19.20;99.90;;;;;;5072713;28;20090;-54
2022/10/05 13:21:32;;;;;;;3.10;2.00;;;19.30;99.90;;;;;;5071451;28;20450;-54
2022/10/05 13:24:16;;;;;;;4.65;2.20;;;19.30;99.90;;;;;;5077933;28;20462;-54
2022/10/05 13:26:48;;;;;;;2.90;2.30;;;19.30;99.90;;;;;;5076957;28;20144;-54
2022/10/05 13:29:14;;;;;;;2.30;2.10;;;19.40;99.90;;;;;;5090027;28;20044;-54
2022/10/05 13:31:43;;;;;;;2.53;2.10;;;19.30;99.90;;;;;;5074202;28;20047;-54
2022/10/05 13:34:09;;;;;;;2.65;2.13;;;19.30;99.90;;;;;;5093120;28;20062;-51
2022/10/05 13:36:47;;;;;;;4.20;2.10;;;19.30;99.90;;;;;;5080588;28;20550;-54
2022/10/05 13:39:32;;;;;;;5.75;2.70;;;19.40;99.90;;;;;;5074989;28;20347;-54
2022/10/05 13:42:19;;;;;;;4.97;2.75;;;19.40;99.90;;;;;;5070967;28;20047;-54
2022/10/05 13:45:11;;;;;;;6.05;2.50;;;19.40;99.90;;;;;;5083635;28;20513;-53
2022/10/05 13:47:49;;;;;;;4.78;2.60;;;19.40;99.90;;;;;;5075369;28;20085;-54
2022/10/05 13:50:17;;;;;;;3.25;2.28;;;19.40;99.90;;;;;;5088568;28;20047;-53
2022/10/05 13:53:27;;;;;;;5.78;2.55;;;19.50;99.90;;;;;;5092406;28;20044;-54
2022/10/05 13:56:03;;;;;;;3.97;2.15;;;19.70;99.90;;;;;;5080982;28;20044;-54
2022/10/05 13:58:50;;;;;;;4.30;2.08;;;19.60;99.90;;;;;;5079401;28;20048;-54